Flight Track Log - Related Links

Times and Time Zones

All times are in EDT time to prevent confusion due to time zone crossing. See the N251NG flight status page for this flight to view local times or setup timezone preferences in your user account.


Time Position Orientation Groundspeed Altitude Reporting Facility
EDT Latitude Longitude Course Direction KTS MPH feet Rate Location/Type
Thu 07:19:48 PM 42.8219 -85.4625 136° Southeast 166 191 3,600  Level Chicago Center
Thu 07:20:50 PM 42.7894 -85.4239 139° Southeast 159 183 5,300 1,839 Climbing Chicago Center
Thu 07:21:52 PM 42.7475 -85.3750 139° Southeast 164 189 7,400 1,742 Climbing Chicago Center
Thu 07:22:54 PM 42.7106 -85.3319 139° Southeast 172 198 8,900 1,452 Climbing Chicago Center
Thu 07:23:56 PM 42.6717 -85.2858 139° Southeast 182 209 10,400 1,016 Climbing Chicago Center
Thu 07:24:58 PM 42.6306 -85.2389 140° Southeast 189 217 11,000 290 Climbing Chicago Center
Thu 07:26:00 PM 42.5808 -85.1800 139° Southeast 227 261 11,000  Level Chicago Center
Thu 07:27:02 PM 42.5289 -85.1197 139° Southeast 242 278 11,000  Level Chicago Center
Thu 07:28:04 PM 42.4653 -85.0469 140° Southeast 248 285 11,000  Level Chicago Center
Thu 07:29:06 PM 42.4136 -84.9856 139° Southeast 247 284 11,000  Level Chicago Center
Thu 07:30:36 PM 42.3333 -84.8981 141° Southeast 240 276 11,000  Level Cleveland Center
Thu 07:31:36 PM 42.2814 -84.8383 140° Southeast 240 276 11,000  Level Cleveland Center
Thu 07:32:36 PM 42.2294 -84.7758 138° Southeast 246 283 11,000  Level Cleveland Center
Thu 07:33:36 PM 42.1775 -84.7164 140° Southeast 246 283 11,000  Level Cleveland Center
Thu 07:34:36 PM 42.1233 -84.6569 141° Southeast 246 283 11,000  Level Cleveland Center
Thu 07:35:36 PM 42.0792 -84.6036 138° Southeast 241 277 11,000  Level Cleveland Center
Thu 07:36:36 PM 42.0250 -84.5417 140° Southeast 241 277 11,000 -550 Level Cleveland Center
Thu 07:37:36 PM 41.9728 -84.4825 140° Southeast 241 277 9,900 -1,050 Descending Cleveland Center
Thu 07:38:36 PM 41.9186 -84.4233 141° Southeast 246 283 8,900 -1,300 Descending Cleveland Center
Thu 07:39:36 PM 41.8683 -84.3644 139° Southeast 241 277 7,300 -1,650 Descending Cleveland Center
Thu 07:40:36 PM 41.8222 -84.3089 138° Southeast 241 277 5,600 -1,350 Descending Cleveland Center
Thu 07:41:36 PM 41.7853 -84.2314 123° Southeast 236 272 4,600 -850 Descending Cleveland Center
Thu 07:42:36 PM 41.7497 -84.1656 126° Southeast 231 266 3,900 -700 Descending Cleveland Center
Thu 07:44:00 PM 41.7038 -84.0742 124° Southeast  Level FlightAware Approximate
Thu 07:51:00 PM 41.5833 -83.8000 114° Southeast  Level FlightAware Approximate
Thu 07:52:00 PM 41.5868 -83.8078 114° Southeast  Level Estimated

Login

Don't have an account? Register now (free) for customized features, flight alerts, and more!